Levittown, PR

8:52 AM AST on January 29, 2015 (GMT -0400)
KP4MP DAVIS | Change Station
CLOSE
Current Station
Personal Weather Station
Location: Sabana Seca, TOA BAJA
Elevation: 23 ft
Nearby Weather Stations

Elev 23 ft 18.44 °N, 66.18 °W | Updated 9 seconds ago

Mostly Cloudy
Mostly Cloudy
77.7 °F
Feels Like 80 °F
N
0.0
Wind Variable Wind from South
Gusts 2.0 mph

Today
High -- | Low -- °F
--% Chance of Precip.
Yesterday
High -- | Low -- °F
Precip. -- in
6:58 AM 6:16 PM
Waxing Gibbous, 74% visible
Pressure 30.02 in
Visibility 10.0 miles
Clouds Few 2700 ft
Mostly Cloudy 8000 ft
Heat Index 80 °F
Dew Point 71 °F
Humidity 80%
Rainfall 0.00 in
Snow Depth Not available.
UV 0 out of 12
Pollen Not available.
Air Quality Not available.
Flu Activity Not available.
METAR TJSJ 291156Z COR 28003KT 10SM FEW027 BKN080 24/22 A3002 RMK AO2 SLP164 SHRA DSNT NW-N T02440222 10250 20233 52018

More Conditions Fewer Conditions

Pressure 30.02 in
Visibility 10.0 miles
Clouds Few 2700 ft
Mostly Cloudy 8000 ft
Heat Index 80 °F
Dew Point 71 °F
Humidity 80%
Rainfall 0.00 in
Snow Depth Not available.
UV 0 out of 12
Pollen Not available.
Air Quality Not available.
Flu Activity Not available.
METAR TJSJ 291156Z COR 28003KT 10SM FEW027 BKN080 24/22 A3002 RMK AO2 SLP164 SHRA DSNT NW-N T02440222 10250 20233 52018

More Conditions Fewer Conditions

10-Day Weather Forecast

Almanac

Astronomy

Jan. 29, 2015 Rise Set
Actual Time
Civil Twilight
Nautical Twilight
Astronomical Twilight
Moon
Length of Visible Light
Length of Day
Tomorrow will be .
, % of the Moon is Illuminated

Today's Extremes

State Highs State Lows

Community

WunderPhotos

Upload Photos

1,791,420 photos uploaded!

WunderBlogs® & News

Nearby

Air Quality

  Air Quality AQ Index Pollutant
Not available.

Snow Depth

Station Depth Elevation

Earthquake Activity

City Distance Mag. Time & Date
Minimum magnitude displayed is 2.5.

Coastal Water Temperatures

Place Temperature

Nearby Weather Stations